createdAt,value
2022-11-09T00:04:06.539Z,96794.47
2022-11-09T00:09:06.897Z,96793.94
2022-11-09T00:14:02.308Z,96795.63
2022-11-09T00:18:56.070Z,96795.19
2022-11-09T00:23:49.484Z,96789.03
2022-11-09T00:28:43.159Z,96790.34
2022-11-09T00:33:38.174Z,96786.50
2022-11-09T00:38:31.443Z,96791.41
2022-11-09T00:43:24.722Z,96796.94
2022-11-09T00:48:18.055Z,96790.06
2022-11-09T00:53:12.687Z,96797.16
2022-11-09T00:58:06.115Z,96785.97
2022-11-09T01:02:59.382Z,96796.50
2022-11-09T01:07:52.644Z,96808.44
2022-11-09T01:12:47.320Z,96791.56
2022-11-09T01:17:40.596Z,96778.25
2022-11-09T01:22:33.906Z,96779.38
2022-11-09T01:27:27.406Z,96771.13
2022-11-09T01:32:22.051Z,96759.03
2022-11-09T01:37:15.376Z,96771.00
2022-11-09T01:42:08.640Z,96780.59
2022-11-09T01:47:08.222Z,96788.22
2022-11-09T01:52:08.289Z,96781.91
2022-11-09T01:57:10.451Z,96776.28
2022-11-09T02:02:04.997Z,96782.84
2022-11-09T02:07:01.030Z,96781.91
2022-11-09T02:11:58.177Z,96780.72
2022-11-09T02:16:51.885Z,96776.25
2022-11-09T02:21:46.764Z,96797.75
2022-11-09T02:26:46.799Z,96781.06
2022-11-09T02:31:47.454Z,96778.81
2022-11-09T02:36:40.932Z,96776.19
2022-11-09T02:41:44.125Z,96766.50
2022-11-09T02:46:38.564Z,96773.63
2022-11-09T02:51:32.397Z,96768.44
2022-11-09T02:56:25.835Z,96758.56
2022-11-09T03:01:20.595Z,96761.22
2022-11-09T03:06:14.387Z,96750.28
2022-11-09T03:11:07.831Z,96744.88
2022-11-09T03:16:06.645Z,96743.38
2022-11-09T03:21:05.065Z,96749.97
2022-11-09T03:25:58.425Z,96751.31
2022-11-09T03:30:51.917Z,96747.78
2022-11-09T03:35:45.280Z,96762.72
2022-11-09T03:40:39.993Z,96763.66
2022-11-09T03:45:33.359Z,96765.84
2022-11-09T03:50:27.648Z,96768.03
2022-11-09T03:55:21.529Z,96771.47
2022-11-09T04:00:20.803Z,96777.47
2022-11-09T04:05:15.284Z,96798.13
2022-11-09T04:10:09.796Z,96804.22
2022-11-09T04:15:03.130Z,96815.13
2022-11-09T04:19:57.826Z,96828.88
2022-11-09T04:24:51.157Z,96829.06
2022-11-09T04:29:44.462Z,96833.69
2022-11-09T04:34:37.776Z,96834.88
2022-11-09T04:39:32.451Z,96845.91
2022-11-09T04:44:25.850Z,96849.59
2022-11-09T04:49:19.123Z,96851.56
2022-11-09T04:54:12.892Z,96843.03
2022-11-09T04:59:07.931Z,96838.34
2022-11-09T05:04:01.292Z,96837.44
2022-11-09T05:08:55.436Z,96839.28
2022-11-09T05:13:49.214Z,96844.84
2022-11-09T05:18:43.925Z,96849.00
2022-11-09T05:23:54.725Z,96853.94
2022-11-09T05:28:48.045Z,96844.94
2022-11-09T05:33:42.990Z,96853.22
2022-11-09T05:38:36.500Z,96858.31
2022-11-09T05:43:29.847Z,96855.06
2022-11-09T05:48:23.151Z,96856.22
2022-11-09T05:53:17.970Z,96858.50
2022-11-09T05:58:11.719Z,96863.34
2022-11-09T06:03:06.610Z,96855.09
2022-11-09T06:08:04.542Z,96854.66
2022-11-09T06:12:59.544Z,96861.34
2022-11-09T06:17:53.412Z,96883.59
2022-11-09T06:22:46.720Z,96889.50
2022-11-09T06:27:40.101Z,96890.97
2022-11-09T06:32:34.750Z,96904.34
2022-11-09T06:37:28.029Z,96898.41
2022-11-09T06:42:21.438Z,96898.28
2022-11-09T06:47:14.787Z,96902.38
2022-11-09T06:52:09.585Z,96897.03
2022-11-09T06:57:03.142Z,96905.19
2022-11-09T07:02:01.041Z,96913.56
2022-11-09T07:06:54.860Z,96918.66
2022-11-09T07:11:51.508Z,96913.34
2022-11-09T07:16:44.786Z,96921.69
2022-11-09T07:21:38.093Z,96923.78
2022-11-09T07:26:31.396Z,96918.44
2022-11-09T07:31:29.368Z,96918.47
2022-11-09T07:36:22.958Z,96922.00
2022-11-09T07:41:16.294Z,96927.72
2022-11-09T07:46:09.546Z,96921.13
2022-11-09T07:51:04.713Z,96926.34
2022-11-09T07:55:59.760Z,96940.25
2022-11-09T08:00:53.444Z,96938.59
2022-11-09T08:05:47.158Z,96943.47
2022-11-09T08:10:42.354Z,96955.50
2022-11-09T08:15:38.240Z,96960.31
2022-11-09T08:20:32.383Z,96941.88
2022-11-09T08:25:25.805Z,96939.25
2022-11-09T08:30:22.386Z,96946.34
2022-11-09T08:35:18.595Z,96945.19
2022-11-09T08:40:12.352Z,96936.34
2022-11-09T08:45:07.208Z,96942.09
2022-11-09T08:50:02.099Z,96945.81
2022-11-09T08:54:55.382Z,96933.69
2022-11-09T08:59:48.815Z,96922.66
2022-11-09T09:04:42.235Z,96920.22
2022-11-09T09:09:38.199Z,96922.41
2022-11-09T09:14:31.529Z,96922.31
2022-11-09T09:19:25.144Z,96925.66
2022-11-09T09:24:18.481Z,96916.97
2022-11-09T09:29:13.681Z,96905.44
2022-11-09T09:34:07.426Z,96907.47
2022-11-09T09:39:00.714Z,96915.72
2022-11-09T09:44:01.200Z,96922.63
2022-11-09T09:49:04.813Z,96921.03
2022-11-09T09:54:04.830Z,96917.59
2022-11-09T09:59:07.220Z,96913.66
2022-11-09T10:04:01.997Z,96916.78
2022-11-09T10:09:11.958Z,96913.56
2022-11-09T10:14:57.802Z,96897.56
2022-11-09T10:20:09.482Z,96896.88
2022-11-09T10:30:31.388Z,96912.25
2022-11-09T10:35:32.126Z,96914.75
2022-11-09T10:40:31.459Z,96894.69
2022-11-09T10:45:32.836Z,96904.94
2022-11-09T10:50:35.992Z,96899.44
2022-11-09T10:55:30.644Z,96891.94
2022-11-09T11:00:24.745Z,96895.75
2022-11-09T11:05:34.620Z,96902.19
2022-11-09T11:10:27.925Z,96895.03
2022-11-09T11:15:25.323Z,96897.53
2022-11-09T11:20:31.755Z,96893.69
2022-11-09T11:25:26.466Z,96904.41
2022-11-09T11:30:28.824Z,96890.94
2022-11-09T11:35:35.389Z,96880.88
2022-11-09T11:40:39.550Z,96884.16
2022-11-09T11:45:42.493Z,96890.00
2022-11-09T11:50:47.813Z,96889.09
2022-11-09T11:56:02.875Z,96890.28
2022-11-09T12:01:05.580Z,96865.81
2022-11-09T12:06:37.170Z,96858.06
2022-11-09T12:11:51.113Z,96847.44
2022-11-09T12:16:57.248Z,96839.31
2022-11-09T12:22:00.499Z,96832.13
2022-11-09T12:27:34.933Z,96832.78
2022-11-09T12:32:51.183Z,96843.97
2022-11-09T12:37:53.705Z,96849.59
2022-11-09T12:42:56.483Z,96837.06
2022-11-09T12:47:53.072Z,96825.22
2022-11-09T12:52:52.367Z,96819.31
2022-11-09T12:57:49.431Z,96824.19
2022-11-09T13:02:55.685Z,96829.56
2022-11-09T13:07:52.833Z,96816.00
2022-11-09T13:12:47.617Z,96823.41
2022-11-09T13:18:02.274Z,96822.81
2022-11-09T13:23:02.331Z,96827.84
2022-11-09T13:27:57.752Z,96828.06
2022-11-09T13:33:25.063Z,96830.97
2022-11-09T13:38:20.588Z,96832.78
2022-11-09T13:43:29.558Z,96820.47
2022-11-09T13:48:43.619Z,96822.50
2022-11-09T13:53:59.508Z,96829.19
2022-11-09T13:58:56.442Z,96834.00
2022-11-09T14:03:52.702Z,96841.41
2022-11-09T14:08:47.079Z,96848.94
2022-11-09T14:14:09.526Z,96854.22
2022-11-09T14:19:19.679Z,96867.44
2022-11-09T14:24:23.181Z,96865.06
2022-11-09T14:29:24.069Z,96865.44
2022-11-09T14:34:18.763Z,96871.19
2022-11-09T14:39:26.470Z,96866.91
2022-11-09T14:44:30.607Z,96867.59
2022-11-09T14:49:26.932Z,96877.75
2022-11-09T14:54:25.987Z,96885.28
2022-11-09T14:59:29.341Z,96890.06
2022-11-09T15:04:24.645Z,96883.72
2022-11-09T15:09:23.273Z,96881.56
2022-11-09T15:14:27.150Z,96896.03
2022-11-09T15:19:33.558Z,96892.44
2022-11-09T15:24:30.063Z,96887.78
2022-11-09T15:29:39.615Z,96881.47
2022-11-09T15:34:41.070Z,96888.50
2022-11-09T15:39:34.400Z,96894.13
2022-11-09T15:44:27.702Z,96890.66
2022-11-09T15:49:25.040Z,96910.34
2022-11-09T15:54:20.200Z,96912.13
2022-11-09T15:59:21.938Z,96926.91
2022-11-09T16:04:17.405Z,96924.28
2022-11-09T16:09:11.493Z,96930.63
2022-11-09T16:15:00.447Z,96928.84
2022-11-09T16:20:02.835Z,96941.34
2022-11-09T16:25:05.520Z,96936.72
2022-11-09T16:30:03.497Z,96954.81
2022-11-09T16:35:25.466Z,96958.53
2022-11-09T16:40:19.925Z,96975.09
2022-11-09T16:45:19.640Z,96984.03
2022-11-09T16:50:26.450Z,96995.47
2022-11-09T16:55:28.574Z,97011.13
2022-11-09T17:00:48.673Z,97014.78
2022-11-09T17:05:56.370Z,97023.97
2022-11-09T17:11:06.852Z,97021.13
2022-11-09T17:16:07.522Z,97034.63
2022-11-09T17:21:04.025Z,97038.56
2022-11-09T17:25:59.278Z,97049.75
2022-11-09T17:30:53.546Z,97053.53
2022-11-09T17:35:48.902Z,97060.81
2022-11-09T17:40:51.676Z,97068.13
2022-11-09T17:45:50.076Z,97083.50
2022-11-09T17:50:52.212Z,97092.34
2022-11-09T17:56:04.435Z,97089.81
2022-11-09T18:01:04.896Z,97086.72
2022-11-09T18:06:02.225Z,97093.66
2022-11-09T18:11:02.378Z,97092.00
2022-11-09T18:16:30.897Z,97098.66
2022-11-09T18:21:41.263Z,97109.16
2022-11-09T18:26:46.285Z,97115.94
2022-11-09T18:31:52.145Z,97113.75
2022-11-09T18:37:10.006Z,97113.81
2022-11-09T18:42:30.882Z,97121.75
2022-11-09T18:48:27.265Z,97125.47
2022-11-09T18:53:49.613Z,97135.28
2022-11-09T18:58:46.805Z,97137.16
2022-11-09T19:03:40.417Z,97137.50
2022-11-09T19:08:53.533Z,97136.47
2022-11-09T19:13:46.948Z,97139.28
2022-11-09T19:18:40.516Z,97149.91
2022-11-09T19:23:38.212Z,97152.19
2022-11-09T19:28:36.617Z,97153.41
2022-11-09T19:33:33.291Z,97150.16
2022-11-09T19:38:26.954Z,97155.41
2022-11-09T19:43:24.191Z,97147.03
2022-11-09T19:48:28.994Z,97172.19
2022-11-09T19:53:46.291Z,97161.38
2022-11-09T19:58:49.186Z,97168.84
2022-11-09T20:03:53.184Z,97174.94
2022-11-09T20:08:47.430Z,97176.59
2022-11-09T20:13:42.571Z,97182.53
2022-11-09T20:18:37.656Z,97184.72
2022-11-09T20:23:43.260Z,97192.72
2022-11-09T20:28:37.686Z,97191.28
2022-11-09T20:33:32.952Z,97194.13
2022-11-09T20:38:26.565Z,97199.50
2022-11-09T20:43:24.963Z,97208.53
2022-11-09T20:48:51.986Z,97218.19
2022-11-09T20:53:41.539Z,97216.28
2022-11-09T20:58:37.461Z,97233.94
2022-11-09T21:03:31.274Z,97232.97
2022-11-09T21:08:25.251Z,97234.84
2022-11-09T21:13:20.238Z,97231.31
2022-11-09T21:18:14.095Z,97234.66
2022-11-09T21:23:25.081Z,97245.34
2022-11-09T21:28:37.424Z,97246.75
2022-11-09T21:33:31.170Z,97243.41
2022-11-09T21:38:27.854Z,97251.16
2022-11-09T21:43:23.391Z,97253.06
2022-11-09T21:48:18.479Z,97261.84
2022-11-09T21:53:12.496Z,97264.69
2022-11-09T21:58:10.016Z,97269.13
2022-11-09T22:03:08.959Z,97266.59
2022-11-09T22:08:02.585Z,97273.59
2022-11-09T22:13:13.745Z,97272.78
2022-11-09T22:18:32.597Z,97269.94
2022-11-09T22:23:28.926Z,97271.28
2022-11-09T22:28:23.836Z,97267.59
2022-11-09T22:33:24.471Z,97274.75
2022-11-09T22:38:20.569Z,97273.28
2022-11-09T22:43:15.710Z,97287.38
2022-11-09T22:48:09.084Z,97288.94
2022-11-09T22:53:04.254Z,97290.22
2022-11-09T22:57:58.278Z,97297.22
2022-11-09T23:02:51.689Z,97297.22
2022-11-09T23:07:47.020Z,97301.63
2022-11-09T23:12:41.750Z,97312.22
2022-11-09T23:17:54.723Z,97322.44
2022-11-09T23:22:49.743Z,97320.41
2022-11-09T23:27:44.797Z,97310.56
2022-11-09T23:32:38.106Z,97323.56
2022-11-09T23:37:31.804Z,97324.63
2022-11-09T23:42:25.235Z,97330.19
2022-11-09T23:47:20.263Z,97336.47
2022-11-09T23:52:14.273Z,97338.25
2022-11-09T23:57:08.080Z,97347.69
